KDUC

Halliburton Field Airport

Duncan, Oklahoma, USA
METAR KDUC 162355Z AUTO 17020KT 10SM SCT046 OVC060 12/M02 A2996 RMK AO2 T01201018 10168 20118 401681030
Observed Flight Rules
Dec-16 @ 23:55 UTC (23 minutes ago) Visual Flight Rules
Wind Visibility Clouds
170° at 20 knots 10 miles
  • Scattered at 4,600' AGL
  • Overcast at 6,000' AGL
Temperatures Readings
Current 12°C / 54°F
Dewpoint -2°C / 28°F
Humidity 38%
Altimeter 29.96" Hg
Pressure 1015 hPa
Elevation 339
METAR KDUC 162355Z AUTO 17020KT 10SM SCT046 OVC060 12/M02 A2996 RMK AO2 T01201018 10168 20118 401681030
Observed Flight Rules
Dec-16 @ 23:55 UTC
(23 minutes ago)
VFR
Wind Visibility
170° at 20 knots 10 miles
Clouds
  • Scattered at 4,600' AGL
  • Overcast at 6,000' AGL
Temperature Dewpoint
12°C / 54°F -2°C / 28°F
Humidity Altimeter Pressure
38% 29.96" Hg 1015 hPa